Date,TemperatureHighF,TemperatureAvgF,TemperatureLowF,DewpointHighF,DewpointAvgF,DewpointLowF,HumidityHigh,HumidityAvg,HumidityLow,PressureMaxIn,PressureMinIn,WindSpeedMaxMPH,WindSpeedAvgMPH,GustSpeedMaxMPH,PrecipitationSumIn
2013-1-1,20.0,14.4,9.0,8.0,6.0,1.0,80,69,54,0.00,40.00,14,8,20,0.00
2013-1-2,23.0,18.3,10.0,19.0,14.2,2.0,91,84,67,0.00,40.00,11,6,19,0.00
2013-1-3,29.0,21.8,17.0,22.0,17.6,15.0,93,84,63,0.00,40.00,16,7,25,0.00
2013-1-4,37.0,25.6,18.0,23.0,16.4,12.0,83,69,50,0.00,40.00,16,8,30,0.00
2013-1-5,33.0,23.7,13.0,30.0,1.9,-99.9,99,72,73,0.00,40.00,10,4,20,0.00
2013-1-6,30.0,23.6,12.0,30.0,18.4,-99.9,99,85,64,0.00,40.00,16,7,28,0.00
2013-1-7,36.0,28.6,14.0,26.0,15.6,-99.9,97,68,55,0.00,40.00,19,10,36,0.00
2013-1-8,37.0,31.2,22.0,37.0,-6.6,-99.9,99,63,76,0.00,40.00,14,7,23,0.00
2013-1-9,37.0,34.6,26.0,36.0,27.4,22.0,99,76,54,0.00,40.00,22,10,43,0.00
2013-1-10,37.0,29.7,22.0,35.0,-3.4,-99.9,97,67,71,0.00,40.00,11,4,19,0.00
2013-1-11,40.0,36.3,34.0,35.0,-95.2,-99.9,99,3,93,0.00,40.00,11,6,20,0.00
2013-1-12,43.0,37.2,29.0,35.0,-36.2,-99.9,83,37,65,0.00,40.00,24,9,34,0.00
2013-1-13,29.0,23.6,19.0,21.0,18.8,15.0,96,82,72,0.00,40.00,16,7,21,0.00
2013-1-14,24.0,14.9,8.0,16.0,8.0,5.0,93,75,48,0.00,40.00,16,8,22,0.00
2013-1-15,29.0,20.8,9.0,16.0,10.4,3.0,78,64,48,0.00,40.00,17,9,27,0.00
2013-1-16,31.0,24.6,20.0,26.0,17.6,10.0,95,74,53,0.00,40.00,16,9,26,0.00
2013-1-17,20.0,10.8,4.0,14.0,0.8,-5.0,80,64,44,0.00,40.00,17,8,29,0.00
2013-1-18,19.0,11.0,3.0,18.0,-4.6,-99.9,99,76,68,0.00,40.00,9,4,14,0.00
2013-1-19,34.0,24.4,18.0,33.0,1.5,-99.9,99,77,65,0.00,40.00,26,7,45,0.00
2013-1-20,17.0,8.7,2.0,9.0,-1.1,-6.0,76,64,47,0.00,40.00,27,14,44,0.00
2013-1-21,3.0,-2.1,-10.0,-5.0,-13.2,-21.0,76,59,40,0.00,40.00,24,13,33,0.00
2013-1-22,3.0,-5.6,-13.0,-11.0,-15.4,-21.0,75,62,46,0.00,40.00,17,8,28,0.00
2013-1-23,11.0,1.2,-9.0,7.0,-6.6,-14.0,91,69,49,0.00,40.00,16,7,31,0.00
2013-1-24,14.0,7.4,0.0,7.0,1.0,-5.0,94,75,52,0.00,40.00,14,6,21,0.00
2013-1-25,20.0,14.2,9.0,18.0,12.1,1.0,99,92,64,0.00,40.00,175,41,175,0.00
2013-1-26,27.0,20.1,13.0,18.0,15.5,11.0,95,82,63,0.00,40.00,157,24,175,0.00
2013-1-27,24.0,22.1,21.0,24.0,5.1,-99.9,99,73,73,0.00,40.00,11,6,19,0.00
2013-1-28,36.0,32.9,30.0,34.0,-91.3,-99.9,98,6,95,0.00,40.00,7,3,12,0.00
2013-1-29,39.0,34.9,32.0,-99.9,-99.9,-99.9,0,0,100,0.00,40.00,13,6,19,0.00
2013-1-30,34.0,26.5,16.0,34.0,-37.4,-99.9,99,46,87,0.00,40.00,16,11,34,0.00
2013-1-31,16.0,12.3,9.0,8.0,2.6,-99.9,83,70,60,0.00,40.00,26,14,33,0.00
2013-2-1,12.0,6.6,2.0,4.0,-1.4,-7.0,88,70,51,0.00,40.00,16,8,23,0.00
2013-2-2,17.0,5.1,-4.0,2.0,-4.2,-9.0,87,66,44,0.00,40.00,16,6,22,0.00
2013-2-3,16.0,6.7,-3.0,7.0,-0.3,-6.0,91,74,48,0.00,40.00,17,7,31,0.00
2013-2-4,18.0,6.2,-2.0,3.0,-2.1,-6.0,85,70,45,0.00,40.00,11,6,17,0.00
2013-2-5,24.0,12.7,-3.0,16.0,8.3,-6.0,98,83,58,0.00,40.00,14,6,21,0.00
2013-2-6,24.0,14.0,-3.0,19.0,-8.9,-99.9,99,71,64,0.00,40.00,11,4,15,0.00
2013-2-7,22.0,19.7,19.0,21.0,-83.1,-99.9,99,14,96,0.00,40.00,175,45,175,0.00
2013-2-8,26.0,19.7,5.0,21.0,14.3,2.0,98,81,52,0.00,40.00,175,28,175,0.00
2013-2-9,27.0,13.4,-2.0,24.0,11.0,-4.0,96,90,81,0.00,40.00,11,5,26,0.00
2013-2-10,33.0,29.1,24.0,33.0,-31.3,-99.9,99,51,90,0.00,40.00,11,5,33,0.00
2013-2-11,38.0,32.7,25.0,34.0,-50.4,-99.9,96,34,78,0.00,40.00,25,4,37,0.00
2013-2-12,29.0,23.9,20.0,20.0,17.9,16.0,92,78,60,0.00,40.00,16,7,28,0.00
2013-2-13,36.0,24.8,17.0,30.0,3.0,-99.9,99,77,74,0.00,40.00,8,5,14,0.00
2013-2-14,33.0,27.1,19.0,32.0,-52.2,-99.9,98,33,70,0.00,40.00,15,7,29,0.00
2013-2-15,22.0,17.1,8.0,15.0,9.4,3.0,89,72,49,0.00,40.00,14,8,24,0.00
2013-2-16,20.0,11.5,5.0,6.0,3.8,2.0,89,72,48,0.00,40.00,13,8,22,0.00
2013-2-17,21.0,10.5,-1.0,8.0,2.6,-4.0,91,72,43,0.00,40.00,14,5,23,0.00
2013-2-18,35.0,27.7,15.0,34.0,-12.8,-99.9,99,61,61,0.00,40.00,16,7,29,0.00
2013-2-19,33.0,22.2,11.0,8.0,-63.6,-99.9,84,26,66,0.00,40.00,24,13,175,0.00
2013-2-20,19.0,14.1,11.0,15.0,10.4,7.0,97,85,80,0.00,40.00,19,14,34,0.00
2013-2-21,25.0,20.6,15.0,23.0,19.1,11.0,99,94,86,0.00,40.00,13,8,26,0.00
2013-2-22,24.0,21.1,18.0,19.0,-91.5,-99.9,99,7,99,0.00,40.00,11,7,21,0.00
2013-2-23,30.0,24.5,17.0,29.0,-41.9,-99.9,99,39,77,0.00,40.00,11,4,17,0.00
2013-2-24,37.0,30.2,26.0,29.0,-9.4,-99.9,99,61,64,0.00,40.00,12,6,19,0.00
2013-2-25,36.0,30.4,27.0,30.0,27.4,25.0,99,89,67,0.00,40.00,11,4,16,0.00
2013-2-26,36.0,31.9,30.0,32.0,-22.2,-99.9,99,50,68,0.00,40.00,13,-2,24,0.00
2013-2-27,33.0,30.8,29.0,33.0,-52.7,-99.9,99,33,84,0.00,40.00,15,10,27,0.00
2013-2-28,32.0,28.5,25.0,31.0,-0.5,-99.9,99,68,73,0.00,40.00,18,12,34,0.00
2013-3-1,26.0,22.2,20.0,19.0,15.5,10.0,89,76,50,0.00,40.00,16,11,30,0.00
2013-3-2,28.0,19.8,13.0,17.0,13.2,9.0,93,76,55,0.00,40.00,14,8,26,0.00
2013-3-3,29.0,17.8,8.0,15.0,10.2,5.0,88,73,47,0.00,40.00,14,7,21,0.00
2013-3-4,33.0,19.9,8.0,21.0,14.5,7.0,97,81,48,0.00,40.00,9,5,16,0.00
2013-3-5,36.0,23.5,14.0,24.0,16.2,10.0,93,75,45,0.00,40.00,14,8,23,0.00
2013-3-6,32.0,29.9,26.0,31.0,27.4,20.0,99,90,81,0.00,40.00,11,-15,22,0.00
2013-3-7,33.0,23.4,15.0,22.0,17.1,13.0,91,78,50,0.00,40.00,10,5,16,0.00
2013-3-8,34.0,21.4,9.0,27.0,17.7,-99.9,99,89,71,0.00,40.00,14,5,22,0.00
2013-3-9,36.0,29.4,18.0,35.0,-53.6,-99.9,99,34,93,0.00,40.00,14,6,24,0.00
2013-3-10,37.0,34.4,32.0,33.0,-90.1,-99.9,98,7,97,0.00,40.00,14,7,25,0.00
2013-3-11,35.0,33.1,32.0,35.0,-77.9,-99.9,99,16,93,0.00,40.00,16,9,38,0.00
2013-5-16,67.0,53.1,46.0,46.0,10.6,-99.9,75,49,34,0.00,40.00,17,10,28,0.00
2013-5-17,60.0,49.0,40.0,48.0,39.0,-99.9,94,80,61,0.00,40.00,12,6,21,0.00
2013-5-18,62.0,53.5,47.0,52.0,47.8,41.0,99,82,63,0.00,40.00,10,5,20,0.00
2013-5-19,71.0,59.5,51.0,62.0,54.8,49.0,100,85,71,0.00,40.00,14,6,20,0.00
2013-5-20,66.0,59.3,54.0,66.0,55.2,49.0,100,87,67,0.00,40.00,9,5,20,0.00
2013-5-21,54.0,53.6,53.0,53.0,48.9,45.0,96,84,73,0.00,40.00,10,6,18,0.00
2013-5-23,47.0,44.7,41.0,35.0,32.6,30.0,76,62,53,0.00,40.00,20,12,36,0.00
2013-5-24,59.0,46.2,34.0,44.0,35.0,27.0,99,68,39,0.00,40.00,12,7,20,0.00
2013-5-25,61.0,50.1,36.0,44.0,34.6,28.0,100,58,34,0.00,40.00,13,6,21,0.00
2013-5-26,63.0,52.5,38.0,48.0,39.1,29.0,97,65,28,0.00,40.00,14,6,20,0.00
2013-5-27,68.0,55.5,41.0,48.0,41.8,30.0,100,64,37,0.00,40.00,14,6,21,0.00
2013-5-28,56.0,53.8,52.0,54.0,48.0,45.0,99,81,65,0.00,40.00,9,5,17,0.00
2013-5-29,70.0,58.7,52.0,65.0,54.8,47.0,100,87,70,0.00,40.00,16,8,30,0.00
2013-5-30,73.0,62.9,53.0,68.0,58.3,45.0,99,85,63,0.00,40.00,16,7,30,0.00
2013-5-31,71.0,62.1,56.0,67.0,58.3,51.0,100,88,76,0.00,40.00,16,9,32,0.00
2013-6-1,69.0,59.1,47.0,66.0,54.2,46.0,100,84,64,0.00,40.00,12,6,27,0.00
2013-6-2,58.0,47.4,42.0,45.0,39.4,-99.9,100,78,52,0.00,40.00,21,11,33,0.00
2013-6-3,66.0,51.6,38.0,47.0,36.0,28.0,95,58,36,0.00,40.00,15,6,24,0.00
2013-6-4,61.0,51.7,38.0,46.0,35.8,30.0,100,58,35,0.00,40.00,8,4,14,0.00
2013-6-5,55.0,49.2,41.0,50.0,45.0,34.0,100,85,61,0.00,40.00,8,4,16,0.00
2013-6-6,63.0,52.5,45.0,60.0,46.0,34.0,99,81,46,0.00,40.00,10,6,20,0.00
2013-6-7,70.0,57.7,46.0,67.0,51.3,34.0,93,82,33,0.00,40.00,14,6,22,0.00
2013-6-8,73.0,60.4,48.0,55.0,46.1,39.0,93,63,33,0.00,40.00,14,6,23,0.00
2013-6-9,74.0,60.5,47.0,59.0,50.9,37.0,100,71,54,0.00,40.00,12,5,18,0.00
2013-6-10,73.0,64.4,57.0,64.0,58.5,48.0,99,82,61,0.00,40.00,12,6,15,0.00
2013-6-11,74.0,62.8,51.0,72.0,60.0,47.0,100,91,72,0.00,40.00,10,5,17,0.00
2013-6-12,74.0,61.4,51.0,71.0,54.6,45.0,95,79,56,0.00,40.00,10,5,27,0.00
2013-6-13,66.0,58.8,50.0,58.0,52.2,44.0,100,79,68,0.00,40.00,20,10,31,0.00
2013-6-14,71.0,58.3,48.0,51.0,44.1,39.0,86,63,39,0.00,40.00,13,6,21,0.00
2013-9-22,-200.0,0.0,200.0,-99.9,-99.9,-99.9,0,0,100,0.00,40.00,4,4,6,0.00
2013-9-29,-200.0,0.0,200.0,-99.9,-99.9,-99.9,0,0,100,0.00,40.00,5,5,9,0.00
2013-9-30,61.0,60.5,60.0,60.0,60.0,60.0,99,98,98,0.00,40.00,6,6,9,0.00
2013-10-2,71.0,52.2,44.0,44.0,41.2,38.0,78,69,30,0.00,40.00,5,4,9,0.00
2013-10-3,64.0,56.6,52.0,58.0,51.5,45.0,99,83,77,0.00,40.00,7,4,10,0.00
2013-10-4,61.0,57.1,55.0,59.0,53.6,48.0,99,88,77,0.00,40.00,6,4,11,0.00
2013-10-5,57.0,55.4,54.0,53.0,51.7,49.0,94,87,75,0.00,40.00,4,4,12,0.00
2013-10-6,65.0,59.4,55.0,64.0,55.7,48.0,98,88,78,0.00,40.00,7,4,11,0.00
2013-10-7,60.0,52.2,43.0,51.0,46.0,36.0,97,81,53,0.00,40.00,9,5,16,0.00
2013-10-8,66.0,51.0,42.0,60.0,44.2,34.0,83,78,73,0.00,40.00,8,4,14,0.00
2013-10-9,69.0,60.0,53.0,61.0,55.2,48.0,98,85,69,0.00,40.00,8,4,14,0.00
2013-10-10,67.0,54.0,44.0,62.0,50.5,41.0,99,88,77,0.00,40.00,6,3,12,0.00
2013-10-11,64.0,50.2,45.0,61.0,47.4,42.0,97,90,85,0.00,40.00,6,2,9,0.00
2013-10-12,64.0,60.1,55.0,62.0,54.5,46.0,99,82,70,0.00,40.00,9,6,15,0.00
2013-10-13,55.0,47.1,43.0,50.0,39.5,-99.9,99,82,73,0.00,40.00,7,4,11,0.00
2013-10-14,58.0,42.8,36.0,46.0,36.8,33.0,93,80,45,0.00,40.00,6,2,9,0.00
2013-10-15,57.0,53.1,47.0,56.0,49.2,38.0,99,87,71,0.00,40.00,6,3,12,0.00
2013-10-16,55.0,50.9,45.0,52.0,48.2,42.0,99,91,78,0.00,40.00,9,5,16,0.00
2013-10-17,50.0,43.4,36.0,44.0,37.3,29.0,95,79,67,0.00,40.00,4,3,7,0.00
2013-10-18,47.0,40.4,35.0,44.0,36.1,33.0,96,85,80,0.00,40.00,3,2,6,0.00
2013-10-19,50.0,42.9,37.0,39.0,35.9,33.0,93,77,57,0.00,40.00,4,3,7,0.00
2013-10-20,46.0,34.9,35.0,43.0,23.8,-99.9,90,79,80,0.00,40.00,7,4,10,0.00
2013-10-21,39.0,38.6,37.0,38.0,35.9,33.0,95,89,79,0.00,40.00,6,4,11,0.00
2013-11-12,31.0,25.9,24.0,14.0,11.4,10.0,61,54,46,30.44,29.48,9,6,15,0.00
2013-11-13,42.0,29.1,19.0,31.0,19.5,11.0,89,68,49,30.44,29.84,14,8,23,0.00
2013-11-14,39.0,35.9,32.0,34.0,29.6,25.0,93,78,64,29.84,29.79,9,5,15,0.00
2013-11-15,49.0,37.7,27.0,45.0,34.8,26.0,98,89,74,29.88,29.80,10,5,14,0.00
2013-11-16,50.0,41.9,30.0,47.0,36.0,-99.9,99,86,77,29.88,29.41,17,10,31,0.00
2013-11-17,52.0,48.8,42.0,52.0,47.6,37.0,99,95,83,29.41,29.12,22,9,37,0.00
2013-11-18,41.0,34.2,29.0,37.0,27.1,20.0,93,76,61,30.15,29.24,25,17,37,0.00
2013-11-19,37.0,29.0,24.0,34.0,22.0,16.0,93,75,56,30.34,30.15,9,5,19,0.00
2013-11-20,42.0,40.5,38.0,41.0,38.4,36.0,95,92,85,30.24,30.18,15,9,27,0.00
2013-11-21,42.0,38.2,33.0,41.0,37.7,29.0,100,98,77,30.23,30.13,13,5,19,0.00
2013-11-22,34.0,30.0,27.0,31.0,26.3,20.0,100,87,60,30.43,30.22,12,8,21,0.00
2013-11-23,24.0,16.3,11.0,18.0,6.5,-99.9,87,70,47,30.59,30.30,18,12,32,0.00
2013-11-24,24.0,15.8,10.0,9.0,5.3,1.0,95,65,39,30.58,30.13,15,9,31,0.00
2013-11-25,35.0,27.3,25.0,29.0,7.7,-99.9,88,60,42,30.13,29.82,16,10,27,0.00
2013-11-26,31.0,24.1,14.0,29.0,16.6,5.0,94,74,52,30.14,29.86,14,9,23,0.00
2013-11-27,25.0,18.9,14.0,21.0,16.5,7.0,100,90,73,30.18,30.12,13,8,25,0.00
2013-11-28,24.0,21.2,18.0,24.0,21.1,18.0,100,99,97,30.41,30.16,8,4,13,0.00
2013-11-29,31.0,22.2,13.0,29.0,19.9,12.0,100,91,68,30.57,30.39,10,4,20,0.00
2013-11-30,35.0,31.7,30.0,30.0,26.3,-99.9,94,84,79,30.39,30.02,10,5,23,0.00
2013-12-1,34.0,32.4,31.0,34.0,31.8,29.0,99,97,88,30.15,30.04,6,4,11,0.00
2013-12-2,36.0,29.7,23.0,35.0,28.5,22.0,99,95,83,30.04,29.89,7,3,14,0.00
2013-12-3,31.0,26.6,24.0,30.0,26.2,23.0,100,99,93,29.96,29.90,10,6,15,0.00
2013-12-4,38.0,30.8,24.0,38.0,30.5,24.0,100,99,98,29.92,29.36,10,6,18,0.00
2013-12-5,42.0,25.8,12.0,41.0,20.0,5.0,99,79,57,30.07,29.36,21,11,33,0.00
2013-12-6,17.0,10.1,3.0,6.0,3.4,1.0,91,74,51,30.38,30.15,13,8,18,0.00
2013-12-7,14.0,6.3,1.0,3.0,-4.8,-99.9,88,71,43,30.59,30.38,13,8,19,0.00
2013-12-8,12.0,4.5,-3.0,12.0,-12.6,-99.9,99,87,74,30.59,30.17,8,5,13,0.00
2013-12-9,18.0,12.5,5.0,16.0,-2.9,-99.9,100,89,67,30.15,29.85,13,6,20,0.00
2013-12-10,13.0,1.5,-5.0,3.0,-11.6,-99.9,97,82,61,30.05,29.83,11,7,19,0.00
2013-12-11,10.0,2.2,-3.0,-1.0,-37.2,-99.9,87,72,49,30.39,30.04,13,8,19,0.00
2013-12-12,15.0,2.6,-6.0,5.0,-11.1,-99.9,83,73,52,30.40,30.08,9,6,17,0.00
2013-12-13,15.0,10.5,6.0,9.0,4.0,-1.0,99,75,58,30.43,30.08,11,6,17,0.00
2013-12-14,14.0,9.4,6.0,13.0,5.5,-99.9,100,89,66,30.43,29.97,8,6,15,0.00
2013-12-18,21.0,16.4,13.0,17.0,12.9,8.0,99,86,70,30.01,29.69,11,5,22,0.00
2013-12-19,25.0,18.5,10.0,24.0,17.1,10.0,99,94,88,30.11,29.68,11,5,22,0.00
2013-12-20,23.0,19.5,17.0,22.0,18.6,14.0,100,97,68,30.11,29.92,11,6,16,0.00
2013-12-21,26.0,20.1,17.0,23.0,17.8,-99.9,100,96,89,30.00,29.89,8,4,13,0.00
2013-12-22,21.0,20.2,19.0,21.0,19.5,17.0,100,97,89,30.13,29.89,11,6,18,0.00
2013-12-23,21.0,18.1,14.0,20.0,16.4,12.0,100,93,76,30.38,30.09,8,5,13,0.00
2013-12-24,20.0,12.3,8.0,14.0,9.9,6.0,97,90,69,30.48,30.37,8,5,15,0.00
2013-12-25,18.0,13.2,9.0,15.0,11.5,6.0,100,93,79,30.37,30.03,11,7,19,0.00
2013-12-26,18.0,11.0,0.0,15.0,5.3,-99.9,99,92,70,30.21,30.03,11,6,15,0.00
2013-12-27,28.0,10.9,-4.0,28.0,-1.5,-99.9,100,99,97,30.22,29.87,12,4,22,0.00
2013-12-28,35.0,31.4,29.0,34.0,28.5,-99.9,100,96,97,29.96,29.77,7,4,14,0.00
2013-12-29,33.0,16.3,2.0,32.0,12.3,-6.0,99,85,66,30.12,29.77,15,11,27,0.00
2013-12-30,8.0,-0.8,-8.0,-4.0,-20.2,-99.9,88,73,54,30.28,30.13,13,8,18,0.00
2013-12-31,7.0,-1.1,-8.0,-6.0,-34.8,-99.9,87,70,49,30.34,30.08,13,8,21,0.00
2014-1-1,11.0,-0.5,-8.0,0.0,-12.9,-99.9,89,76,56,30.46,30.34,11,7,16,0.00
2014-1-2,12.0,2.2,-2.0,2.0,-29.1,-99.9,94,82,63,30.44,30.36,10,6,18,0.00